sensor_id;sensor_type;location;lat;lon;timestamp;P1;durP1;ratioP1;P2;durP2;ratioP2
19113;SDS011;9689;51.052;13.772;2024-02-23T00:01:18;2.28;;;2.08;;
19113;SDS011;9689;51.052;13.772;2024-02-23T00:06:20;2.45;;;1.80;;
19113;SDS011;9689;51.052;13.772;2024-02-23T00:11:22;2.17;;;1.83;;
19113;SDS011;9689;51.052;13.772;2024-02-23T00:16:23;2.80;;;1.70;;
19113;SDS011;9689;51.052;13.772;2024-02-23T00:21:27;3.47;;;1.95;;
19113;SDS011;9689;51.052;13.772;2024-02-23T00:26:27;2.85;;;1.90;;
19113;SDS011;9689;51.052;13.772;2024-02-23T00:31:28;2.22;;;1.60;;
19113;SDS011;9689;51.052;13.772;2024-02-23T00:36:31;2.17;;;1.70;;
19113;SDS011;9689;51.052;13.772;2024-02-23T00:41:31;1.13;;;1.02;;
19113;SDS011;9689;51.052;13.772;2024-02-23T00:46:32;1.25;;;1.10;;
19113;SDS011;9689;51.052;13.772;2024-02-23T00:51:34;1.45;;;1.35;;
19113;SDS011;9689;51.052;13.772;2024-02-23T00:56:35;1.52;;;1.08;;
19113;SDS011;9689;51.052;13.772;2024-02-23T01:01:49;1.23;;;0.80;;
19113;SDS011;9689;51.052;13.772;2024-02-23T01:06:51;0.50;;;0.30;;
19113;SDS011;9689;51.052;13.772;2024-02-23T01:11:52;0.38;;;0.30;;
19113;SDS011;9689;51.052;13.772;2024-02-23T01:16:53;1.05;;;0.50;;
19113;SDS011;9689;51.052;13.772;2024-02-23T01:21:55;2.42;;;0.52;;
19113;SDS011;9689;51.052;13.772;2024-02-23T01:26:59;3.05;;;0.50;;
19113;SDS011;9689;51.052;13.772;2024-02-23T01:32:00;0.93;;;0.30;;
19113;SDS011;9689;51.052;13.772;2024-02-23T01:37:02;0.60;;;0.40;;
19113;SDS011;9689;51.052;13.772;2024-02-23T01:42:04;0.57;;;0.40;;
19113;SDS011;9689;51.052;13.772;2024-02-23T01:47:05;0.50;;;0.40;;
19113;SDS011;9689;51.052;13.772;2024-02-23T01:52:07;0.50;;;0.50;;
19113;SDS011;9689;51.052;13.772;2024-02-23T01:57:08;2.05;;;0.55;;
19113;SDS011;9689;51.052;13.772;2024-02-23T02:02:29;0.52;;;0.40;;
19113;SDS011;9689;51.052;13.772;2024-02-23T02:07:31;0.38;;;0.38;;
19113;SDS011;9689;51.052;13.772;2024-02-23T02:12:32;1.98;;;0.40;;
19113;SDS011;9689;51.052;13.772;2024-02-23T02:17:32;1.85;;;0.60;;
19113;SDS011;9689;51.052;13.772;2024-02-23T02:22:38;0.52;;;0.35;;
19113;SDS011;9689;51.052;13.772;2024-02-23T02:27:39;0.40;;;0.32;;
19113;SDS011;9689;51.052;13.772;2024-02-23T02:32:39;0.38;;;0.30;;
19113;SDS011;9689;51.052;13.772;2024-02-23T02:37:42;3.45;;;0.50;;
19113;SDS011;9689;51.052;13.772;2024-02-23T02:42:43;3.10;;;0.30;;
19113;SDS011;9689;51.052;13.772;2024-02-23T02:47:43;0.68;;;0.40;;
19113;SDS011;9689;51.052;13.772;2024-02-23T02:52:45;0.57;;;0.55;;
19113;SDS011;9689;51.052;13.772;2024-02-23T02:57:46;0.40;;;0.40;;
19113;SDS011;9689;51.052;13.772;2024-02-23T03:02:47;1.20;;;0.40;;
19113;SDS011;9689;51.052;13.772;2024-02-23T03:07:49;0.65;;;0.40;;
19113;SDS011;9689;51.052;13.772;2024-02-23T03:12:50;0.20;;;0.20;;
19113;SDS011;9689;51.052;13.772;2024-02-23T03:17:50;0.43;;;0.30;;
19113;SDS011;9689;51.052;13.772;2024-02-23T03:22:52;2.17;;;0.60;;
19113;SDS011;9689;51.052;13.772;2024-02-23T03:27:54;0.45;;;0.38;;
19113;SDS011;9689;51.052;13.772;2024-02-23T03:32:55;2.33;;;0.38;;
19113;SDS011;9689;51.052;13.772;2024-02-23T03:38:12;0.70;;;0.20;;
19113;SDS011;9689;51.052;13.772;2024-02-23T03:43:13;0.65;;;0.47;;
19113;SDS011;9689;51.052;13.772;2024-02-23T03:48:14;1.15;;;0.30;;
19113;SDS011;9689;51.052;13.772;2024-02-23T03:53:16;0.63;;;0.20;;
19113;SDS011;9689;51.052;13.772;2024-02-23T03:58:17;0.80;;;0.30;;
19113;SDS011;9689;51.052;13.772;2024-02-23T04:03:17;0.85;;;0.40;;
19113;SDS011;9689;51.052;13.772;2024-02-23T04:08:19;0.57;;;0.30;;
19113;SDS011;9689;51.052;13.772;2024-02-23T04:13:20;0.60;;;0.60;;
19113;SDS011;9689;51.052;13.772;2024-02-23T04:18:21;1.10;;;0.50;;
19113;SDS011;9689;51.052;13.772;2024-02-23T04:23:23;1.73;;;0.40;;
19113;SDS011;9689;51.052;13.772;2024-02-23T04:28:24;0.43;;;0.40;;
19113;SDS011;9689;51.052;13.772;2024-02-23T04:33:26;0.43;;;0.40;;
19113;SDS011;9689;51.052;13.772;2024-02-23T04:38:28;0.30;;;0.10;;
19113;SDS011;9689;51.052;13.772;2024-02-23T04:43:28;2.08;;;0.40;;
19113;SDS011;9689;51.052;13.772;2024-02-23T04:48:29;3.83;;;0.40;;
19113;SDS011;9689;51.052;13.772;2024-02-23T04:53:32;1.08;;;0.57;;
19113;SDS011;9689;51.052;13.772;2024-02-23T04:58:36;2.42;;;0.40;;
19113;SDS011;9689;51.052;13.772;2024-02-23T05:03:38;1.05;;;0.30;;
19113;SDS011;9689;51.052;13.772;2024-02-23T05:08:40;0.40;;;0.40;;
19113;SDS011;9689;51.052;13.772;2024-02-23T05:13:41;0.47;;;0.30;;
19113;SDS011;9689;51.052;13.772;2024-02-23T05:18:42;0.32;;;0.30;;
19113;SDS011;9689;51.052;13.772;2024-02-23T05:23:44;1.67;;;0.60;;
19113;SDS011;9689;51.052;13.772;2024-02-23T05:28:45;3.25;;;0.40;;
19113;SDS011;9689;51.052;13.772;2024-02-23T05:33:46;1.02;;;0.38;;
19113;SDS011;9689;51.052;13.772;2024-02-23T05:38:49;0.43;;;0.35;;
19113;SDS011;9689;51.052;13.772;2024-02-23T05:43:50;1.85;;;0.38;;
19113;SDS011;9689;51.052;13.772;2024-02-23T05:48:51;1.77;;;0.50;;
19113;SDS011;9689;51.052;13.772;2024-02-23T05:53:53;0.68;;;0.68;;
19113;SDS011;9689;51.052;13.772;2024-02-23T05:58:54;2.72;;;0.50;;
19113;SDS011;9689;51.052;13.772;2024-02-23T06:03:54;0.60;;;0.30;;
19113;SDS011;9689;51.052;13.772;2024-02-23T06:08:56;0.47;;;0.40;;
19113;SDS011;9689;51.052;13.772;2024-02-23T06:13:57;1.75;;;1.10;;
19113;SDS011;9689;51.052;13.772;2024-02-23T06:18:58;1.55;;;0.35;;
19113;SDS011;9689;51.052;13.772;2024-02-23T06:24:00;0.52;;;0.50;;
19113;SDS011;9689;51.052;13.772;2024-02-23T06:29:02;1.65;;;0.30;;
19113;SDS011;9689;51.052;13.772;2024-02-23T06:34:03;2.75;;;0.50;;
19113;SDS011;9689;51.052;13.772;2024-02-23T06:39:05;1.75;;;0.50;;
19113;SDS011;9689;51.052;13.772;2024-02-23T06:44:06;10.27;;;1.33;;
19113;SDS011;9689;51.052;13.772;2024-02-23T06:49:07;2.28;;;0.50;;
19113;SDS011;9689;51.052;13.772;2024-02-23T06:54:09;1.48;;;0.43;;
19113;SDS011;9689;51.052;13.772;2024-02-23T06:59:10;0.65;;;0.30;;
19113;SDS011;9689;51.052;13.772;2024-02-23T07:04:11;0.30;;;0.30;;
19113;SDS011;9689;51.052;13.772;2024-02-23T07:09:14;1.73;;;0.65;;
19113;SDS011;9689;51.052;13.772;2024-02-23T07:14:15;1.27;;;0.50;;
19113;SDS011;9689;51.052;13.772;2024-02-23T07:19:16;1.15;;;0.50;;
19113;SDS011;9689;51.052;13.772;2024-02-23T07:24:20;3.40;;;0.52;;
19113;SDS011;9689;51.052;13.772;2024-02-23T07:29:21;1.90;;;0.30;;
19113;SDS011;9689;51.052;13.772;2024-02-23T07:34:22;1.40;;;1.00;;
19113;SDS011;9689;51.052;13.772;2024-02-23T07:39:24;3.88;;;0.52;;
19113;SDS011;9689;51.052;13.772;2024-02-23T07:44:25;2.90;;;0.63;;
19113;SDS011;9689;51.052;13.772;2024-02-23T07:49:25;1.00;;;0.32;;
19113;SDS011;9689;51.052;13.772;2024-02-23T07:54:29;2.28;;;0.30;;
19113;SDS011;9689;51.052;13.772;2024-02-23T07:59:30;1.88;;;0.50;;
19113;SDS011;9689;51.052;13.772;2024-02-23T08:04:31;1.70;;;0.60;;
19113;SDS011;9689;51.052;13.772;2024-02-23T08:09:33;3.15;;;0.50;;
19113;SDS011;9689;51.052;13.772;2024-02-23T08:14:33;3.95;;;0.75;;
19113;SDS011;9689;51.052;13.772;2024-02-23T08:19:34;1.27;;;0.68;;
19113;SDS011;9689;51.052;13.772;2024-02-23T08:24:37;1.63;;;0.50;;
19113;SDS011;9689;51.052;13.772;2024-02-23T08:29:37;0.90;;;0.40;;
19113;SDS011;9689;51.052;13.772;2024-02-23T08:34:38;1.40;;;0.80;;
19113;SDS011;9689;51.052;13.772;2024-02-23T08:39:41;3.85;;;0.60;;
19113;SDS011;9689;51.052;13.772;2024-02-23T08:44:41;1.25;;;0.43;;
19113;SDS011;9689;51.052;13.772;2024-02-23T08:49:42;1.30;;;0.50;;
19113;SDS011;9689;51.052;13.772;2024-02-23T08:54:44;1.75;;;0.40;;
19113;SDS011;9689;51.052;13.772;2024-02-23T08:59:45;3.33;;;0.50;;
19113;SDS011;9689;51.052;13.772;2024-02-23T09:04:46;5.80;;;0.65;;
19113;SDS011;9689;51.052;13.772;2024-02-23T09:09:48;1.30;;;0.40;;
19113;SDS011;9689;51.052;13.772;2024-02-23T09:14:49;3.53;;;0.65;;
19113;SDS011;9689;51.052;13.772;2024-02-23T09:19:50;2.03;;;0.60;;
19113;SDS011;9689;51.052;13.772;2024-02-23T09:24:52;2.75;;;0.60;;
19113;SDS011;9689;51.052;13.772;2024-02-23T09:29:55;3.50;;;0.60;;
19113;SDS011;9689;51.052;13.772;2024-02-23T09:34:57;1.08;;;0.80;;
19113;SDS011;9689;51.052;13.772;2024-02-23T09:39:59;2.35;;;0.73;;
19113;SDS011;9689;51.052;13.772;2024-02-23T09:45:00;1.92;;;0.55;;
19113;SDS011;9689;51.052;13.772;2024-02-23T09:50:02;1.77;;;0.63;;
19113;SDS011;9689;51.052;13.772;2024-02-23T09:55:06;2.05;;;0.95;;
19113;SDS011;9689;51.052;13.772;2024-02-23T10:00:07;3.47;;;0.80;;
19113;SDS011;9689;51.052;13.772;2024-02-23T10:05:12;1.15;;;0.55;;
19113;SDS011;9689;51.052;13.772;2024-02-23T10:10:16;2.47;;;0.40;;
19113;SDS011;9689;51.052;13.772;2024-02-23T10:15:26;1.95;;;0.38;;
19113;SDS011;9689;51.052;13.772;2024-02-23T10:20:29;2.40;;;0.70;;
19113;SDS011;9689;51.052;13.772;2024-02-23T10:25:32;0.98;;;0.50;;
19113;SDS011;9689;51.052;13.772;2024-02-23T10:30:34;1.80;;;0.50;;
19113;SDS011;9689;51.052;13.772;2024-02-23T10:35:37;2.17;;;0.47;;
19113;SDS011;9689;51.052;13.772;2024-02-23T10:40:41;3.80;;;0.73;;
19113;SDS011;9689;51.052;13.772;2024-02-23T10:45:43;6.30;;;0.63;;
19113;SDS011;9689;51.052;13.772;2024-02-23T10:50:45;6.68;;;2.83;;
19113;SDS011;9689;51.052;13.772;2024-02-23T10:55:47;4.32;;;1.50;;
19113;SDS011;9689;51.052;13.772;2024-02-23T11:00:57;2.33;;;0.70;;
19113;SDS011;9689;51.052;13.772;2024-02-23T11:06:02;2.97;;;0.70;;
19113;SDS011;9689;51.052;13.772;2024-02-23T11:11:08;2.55;;;0.73;;
19113;SDS011;9689;51.052;13.772;2024-02-23T11:16:10;4.47;;;0.52;;
19113;SDS011;9689;51.052;13.772;2024-02-23T11:21:11;1.70;;;0.40;;
19113;SDS011;9689;51.052;13.772;2024-02-23T11:26:13;0.77;;;0.40;;
19113;SDS011;9689;51.052;13.772;2024-02-23T11:31:14;1.65;;;0.63;;
19113;SDS011;9689;51.052;13.772;2024-02-23T11:36:22;1.80;;;0.57;;
19113;SDS011;9689;51.052;13.772;2024-02-23T11:41:25;2.67;;;0.70;;
19113;SDS011;9689;51.052;13.772;2024-02-23T11:46:27;1.02;;;0.32;;
19113;SDS011;9689;51.052;13.772;2024-02-23T11:51:28;3.03;;;0.65;;
19113;SDS011;9689;51.052;13.772;2024-02-23T11:56:31;0.85;;;0.47;;
19113;SDS011;9689;51.052;13.772;2024-02-23T12:01:32;3.35;;;0.68;;
19113;SDS011;9689;51.052;13.772;2024-02-23T12:06:33;1.92;;;0.50;;
19113;SDS011;9689;51.052;13.772;2024-02-23T12:11:35;3.88;;;0.50;;
19113;SDS011;9689;51.052;13.772;2024-02-23T12:16:36;2.53;;;0.85;;
19113;SDS011;9689;51.052;13.772;2024-02-23T12:21:37;4.13;;;0.70;;
19113;SDS011;9689;51.052;13.772;2024-02-23T12:26:39;2.42;;;0.63;;
19113;SDS011;9689;51.052;13.772;2024-02-23T12:31:40;1.80;;;0.52;;
19113;SDS011;9689;51.052;13.772;2024-02-23T12:36:42;1.75;;;0.50;;
19113;SDS011;9689;51.052;13.772;2024-02-23T12:41:44;2.13;;;0.63;;
19113;SDS011;9689;51.052;13.772;2024-02-23T12:46:46;3.15;;;0.88;;
19113;SDS011;9689;51.052;13.772;2024-02-23T12:51:46;4.45;;;0.40;;
19113;SDS011;9689;51.052;13.772;2024-02-23T12:56:48;1.50;;;0.70;;
19113;SDS011;9689;51.052;13.772;2024-02-23T13:01:50;1.15;;;0.40;;
19113;SDS011;9689;51.052;13.772;2024-02-23T13:06:52;0.40;;;0.28;;
19113;SDS011;9689;51.052;13.772;2024-02-23T13:11:55;1.25;;;0.32;;
19113;SDS011;9689;51.052;13.772;2024-02-23T13:16:56;4.25;;;1.42;;
19113;SDS011;9689;51.052;13.772;2024-02-23T13:21:57;1.35;;;0.63;;
19113;SDS011;9689;51.052;13.772;2024-02-23T13:27:01;1.25;;;0.57;;
19113;SDS011;9689;51.052;13.772;2024-02-23T13:32:02;1.02;;;0.50;;
19113;SDS011;9689;51.052;13.772;2024-02-23T13:37:03;2.53;;;0.60;;
19113;SDS011;9689;51.052;13.772;2024-02-23T13:42:06;3.20;;;0.70;;
19113;SDS011;9689;51.052;13.772;2024-02-23T13:47:10;2.25;;;0.60;;
19113;SDS011;9689;51.052;13.772;2024-02-23T13:52:12;1.58;;;0.50;;
19113;SDS011;9689;51.052;13.772;2024-02-23T13:57:14;2.28;;;0.65;;
19113;SDS011;9689;51.052;13.772;2024-02-23T14:02:15;3.10;;;0.77;;
19113;SDS011;9689;51.052;13.772;2024-02-23T14:07:21;2.88;;;0.70;;
19113;SDS011;9689;51.052;13.772;2024-02-23T14:12:23;2.25;;;0.57;;
19113;SDS011;9689;51.052;13.772;2024-02-23T14:17:23;2.15;;;0.70;;
19113;SDS011;9689;51.052;13.772;2024-02-23T14:22:24;2.22;;;0.73;;
19113;SDS011;9689;51.052;13.772;2024-02-23T14:27:28;1.65;;;0.68;;
19113;SDS011;9689;51.052;13.772;2024-02-23T14:32:30;3.08;;;0.60;;
19113;SDS011;9689;51.052;13.772;2024-02-23T14:37:32;3.20;;;0.60;;
19113;SDS011;9689;51.052;13.772;2024-02-23T14:42:34;3.80;;;0.75;;
19113;SDS011;9689;51.052;13.772;2024-02-23T14:47:35;5.68;;;0.82;;
19113;SDS011;9689;51.052;13.772;2024-02-23T14:52:44;2.92;;;0.73;;
19113;SDS011;9689;51.052;13.772;2024-02-23T14:57:46;3.22;;;0.65;;
19113;SDS011;9689;51.052;13.772;2024-02-23T15:02:47;2.88;;;0.63;;
19113;SDS011;9689;51.052;13.772;2024-02-23T15:07:48;2.03;;;0.80;;
19113;SDS011;9689;51.052;13.772;2024-02-23T15:12:50;2.20;;;0.70;;
19113;SDS011;9689;51.052;13.772;2024-02-23T15:17:51;3.05;;;0.70;;
19113;SDS011;9689;51.052;13.772;2024-02-23T15:22:52;3.30;;;1.02;;
19113;SDS011;9689;51.052;13.772;2024-02-23T15:27:55;3.20;;;0.60;;
19113;SDS011;9689;51.052;13.772;2024-02-23T15:32:56;6.85;;;1.15;;
19113;SDS011;9689;51.052;13.772;2024-02-23T15:37:57;7.97;;;1.60;;
19113;SDS011;9689;51.052;13.772;2024-02-23T15:42:59;2.55;;;1.10;;
19113;SDS011;9689;51.052;13.772;2024-02-23T15:48:03;2.63;;;1.15;;
19113;SDS011;9689;51.052;13.772;2024-02-23T15:53:04;3.85;;;1.15;;
19113;SDS011;9689;51.052;13.772;2024-02-23T15:58:07;5.07;;;1.63;;
19113;SDS011;9689;51.052;13.772;2024-02-23T16:03:08;2.95;;;1.10;;
19113;SDS011;9689;51.052;13.772;2024-02-23T16:08:09;1.65;;;0.82;;
19113;SDS011;9689;51.052;13.772;2024-02-23T16:13:15;3.95;;;1.00;;
19113;SDS011;9689;51.052;13.772;2024-02-23T16:18:17;2.38;;;1.10;;
19113;SDS011;9689;51.052;13.772;2024-02-23T16:23:18;5.05;;;1.27;;
19113;SDS011;9689;51.052;13.772;2024-02-23T16:28:20;4.68;;;1.13;;
19113;SDS011;9689;51.052;13.772;2024-02-23T16:33:22;5.28;;;1.17;;
19113;SDS011;9689;51.052;13.772;2024-02-23T16:38:23;7.53;;;1.40;;
19113;SDS011;9689;51.052;13.772;2024-02-23T16:43:25;5.60;;;1.58;;
19113;SDS011;9689;51.052;13.772;2024-02-23T16:48:26;4.78;;;1.67;;
19113;SDS011;9689;51.052;13.772;2024-02-23T16:53:27;5.35;;;1.88;;
19113;SDS011;9689;51.052;13.772;2024-02-23T16:58:29;8.93;;;1.52;;
19113;SDS011;9689;51.052;13.772;2024-02-23T17:03:32;3.42;;;1.33;;
19113;SDS011;9689;51.052;13.772;2024-02-23T17:08:33;4.03;;;1.90;;
19113;SDS011;9689;51.052;13.772;2024-02-23T17:13:35;4.45;;;2.05;;
19113;SDS011;9689;51.052;13.772;2024-02-23T17:18:36;12.40;;;1.98;;
19113;SDS011;9689;51.052;13.772;2024-02-23T17:23:37;8.05;;;1.75;;
19113;SDS011;9689;51.052;13.772;2024-02-23T17:28:40;8.63;;;2.47;;
19113;SDS011;9689;51.052;13.772;2024-02-23T17:33:42;37.30;;;6.20;;
19113;SDS011;9689;51.052;13.772;2024-02-23T17:38:43;139.23;;;39.00;;
19113;SDS011;9689;51.052;13.772;2024-02-23T17:43:45;123.35;;;59.47;;
19113;SDS011;9689;51.052;13.772;2024-02-23T17:48:46;30.73;;;14.43;;
19113;SDS011;9689;51.052;13.772;2024-02-23T17:53:47;8.93;;;3.70;;
19113;SDS011;9689;51.052;13.772;2024-02-23T17:58:49;5.30;;;2.85;;
19113;SDS011;9689;51.052;13.772;2024-02-23T18:03:50;10.75;;;2.63;;
19113;SDS011;9689;51.052;13.772;2024-02-23T18:08:51;7.38;;;2.78;;
19113;SDS011;9689;51.052;13.772;2024-02-23T18:13:54;9.88;;;3.00;;
19113;SDS011;9689;51.052;13.772;2024-02-23T18:18:55;7.25;;;2.50;;
19113;SDS011;9689;51.052;13.772;2024-02-23T18:23:57;7.88;;;2.97;;
19113;SDS011;9689;51.052;13.772;2024-02-23T18:29:01;8.57;;;2.97;;
19113;SDS011;9689;51.052;13.772;2024-02-23T18:34:02;10.23;;;3.22;;
19113;SDS011;9689;51.052;13.772;2024-02-23T18:39:03;7.85;;;3.30;;
19113;SDS011;9689;51.052;13.772;2024-02-23T18:44:10;8.15;;;3.28;;
19113;SDS011;9689;51.052;13.772;2024-02-23T18:49:11;13.45;;;2.90;;
19113;SDS011;9689;51.052;13.772;2024-02-23T18:54:12;9.98;;;3.10;;
19113;SDS011;9689;51.052;13.772;2024-02-23T18:59:14;7.35;;;3.05;;
19113;SDS011;9689;51.052;13.772;2024-02-23T19:04:15;9.05;;;3.72;;
19113;SDS011;9689;51.052;13.772;2024-02-23T19:09:16;10.75;;;5.40;;
19113;SDS011;9689;51.052;13.772;2024-02-23T19:14:18;12.55;;;5.25;;
19113;SDS011;9689;51.052;13.772;2024-02-23T19:19:19;14.63;;;6.22;;
19113;SDS011;9689;51.052;13.772;2024-02-23T19:24:20;17.88;;;6.00;;
19113;SDS011;9689;51.052;13.772;2024-02-23T19:29:23;9.63;;;4.03;;
19113;SDS011;9689;51.052;13.772;2024-02-23T19:34:24;10.30;;;4.03;;
19113;SDS011;9689;51.052;13.772;2024-02-23T19:39:25;9.45;;;4.57;;
19113;SDS011;9689;51.052;13.772;2024-02-23T19:44:27;10.55;;;4.20;;
19113;SDS011;9689;51.052;13.772;2024-02-23T19:49:28;9.15;;;4.47;;
19113;SDS011;9689;51.052;13.772;2024-02-23T19:54:30;12.75;;;4.28;;
19113;SDS011;9689;51.052;13.772;2024-02-23T19:59:32;7.30;;;3.55;;
19113;SDS011;9689;51.052;13.772;2024-02-23T20:04:36;11.98;;;4.43;;
19113;SDS011;9689;51.052;13.772;2024-02-23T20:09:37;10.82;;;4.03;;
19113;SDS011;9689;51.052;13.772;2024-02-23T20:14:39;9.32;;;4.50;;
19113;SDS011;9689;51.052;13.772;2024-02-23T20:19:40;9.02;;;4.25;;
19113;SDS011;9689;51.052;13.772;2024-02-23T20:24:41;12.30;;;4.00;;
19113;SDS011;9689;51.052;13.772;2024-02-23T20:29:43;11.77;;;4.57;;
19113;SDS011;9689;51.052;13.772;2024-02-23T20:34:45;11.55;;;4.07;;
19113;SDS011;9689;51.052;13.772;2024-02-23T20:39:46;26.38;;;4.30;;
19113;SDS011;9689;51.052;13.772;2024-02-23T20:44:48;11.60;;;4.20;;
19113;SDS011;9689;51.052;13.772;2024-02-23T20:49:49;9.93;;;3.95;;
19113;SDS011;9689;51.052;13.772;2024-02-23T20:54:50;10.57;;;4.15;;
19113;SDS011;9689;51.052;13.772;2024-02-23T20:59:52;7.97;;;3.83;;
19113;SDS011;9689;51.052;13.772;2024-02-23T21:04:53;12.68;;;3.83;;
19113;SDS011;9689;51.052;13.772;2024-02-23T21:09:54;9.07;;;3.97;;
19113;SDS011;9689;51.052;13.772;2024-02-23T21:14:56;8.70;;;3.90;;
19113;SDS011;9689;51.052;13.772;2024-02-23T21:19:57;11.60;;;3.78;;
19113;SDS011;9689;51.052;13.772;2024-02-23T21:24:58;11.40;;;3.85;;
19113;SDS011;9689;51.052;13.772;2024-02-23T21:30:01;8.13;;;3.33;;
19113;SDS011;9689;51.052;13.772;2024-02-23T21:35:05;13.63;;;3.78;;
19113;SDS011;9689;51.052;13.772;2024-02-23T21:40:07;13.13;;;3.53;;
19113;SDS011;9689;51.052;13.772;2024-02-23T21:45:10;7.57;;;3.20;;
19113;SDS011;9689;51.052;13.772;2024-02-23T21:50:11;8.02;;;3.83;;
19113;SDS011;9689;51.052;13.772;2024-02-23T21:55:13;9.88;;;3.58;;
19113;SDS011;9689;51.052;13.772;2024-02-23T22:00:16;11.32;;;3.65;;
19113;SDS011;9689;51.052;13.772;2024-02-23T22:05:18;11.93;;;3.28;;
19113;SDS011;9689;51.052;13.772;2024-02-23T22:10:20;8.25;;;3.47;;
19113;SDS011;9689;51.052;13.772;2024-02-23T22:15:22;7.50;;;3.20;;
19113;SDS011;9689;51.052;13.772;2024-02-23T22:20:23;8.98;;;3.58;;
19113;SDS011;9689;51.052;13.772;2024-02-23T22:25:24;9.57;;;3.13;;
19113;SDS011;9689;51.052;13.772;2024-02-23T22:30:26;11.82;;;4.18;;
19113;SDS011;9689;51.052;13.772;2024-02-23T22:35:26;11.57;;;3.70;;
19113;SDS011;9689;51.052;13.772;2024-02-23T22:40:27;8.35;;;4.00;;
19113;SDS011;9689;51.052;13.772;2024-02-23T22:45:30;9.80;;;3.65;;
19113;SDS011;9689;51.052;13.772;2024-02-23T22:50:31;10.60;;;3.28;;
19113;SDS011;9689;51.052;13.772;2024-02-23T22:55:32;9.82;;;3.53;;
19113;SDS011;9689;51.052;13.772;2024-02-23T23:00:35;7.63;;;3.80;;
19113;SDS011;9689;51.052;13.772;2024-02-23T23:05:36;11.30;;;3.63;;
19113;SDS011;9689;51.052;13.772;2024-02-23T23:10:37;9.38;;;3.78;;
19113;SDS011;9689;51.052;13.772;2024-02-23T23:15:39;7.35;;;2.92;;
19113;SDS011;9689;51.052;13.772;2024-02-23T23:20:40;8.43;;;3.20;;
19113;SDS011;9689;51.052;13.772;2024-02-23T23:25:41;7.15;;;3.08;;
19113;SDS011;9689;51.052;13.772;2024-02-23T23:30:43;11.70;;;3.75;;
19113;SDS011;9689;51.052;13.772;2024-02-23T23:35:48;10.07;;;2.97;;
19113;SDS011;9689;51.052;13.772;2024-02-23T23:40:49;10.05;;;4.85;;
19113;SDS011;9689;51.052;13.772;2024-02-23T23:45:51;11.68;;;4.63;;
19113;SDS011;9689;51.052;13.772;2024-02-23T23:50:52;9.25;;;3.47;;
19113;SDS011;9689;51.052;13.772;2024-02-23T23:55:53;5.68;;;3.08;;
